Cypress Valley, Arkansas
Current Conditions -  °F | °C
As of 7:53 PM on Monday 22 Dec 2014 (Local Time) from KRUE Reporting Station
Overcast Overcast  
Wind Chill: 53°   Ceiling: 4600
Heat Index: 53°   Visibility: 10mi
Dew Point: 50°   Wind: 8mph
Humidity: 89%   Direction: 300°WNW
Pressure: 29.62"   Gusts: NA
Location:  35.2722°N, 92.6766°W
Report Text: KRUE 230153Z AUTO 30007KT 10SM OVC046 12/10 A2962 RMK AO2 RAE0059 SLP025 P0000 T01170100
Loading
Personal Weather Stations






























Interactive Weather Map New forecast layout! Learn more

10-Day Weather Forecast

Advertisements
Track Severe Weather on mobile